Time;durP1;ratioP1;P1;durP2;ratioP2;P2;SDS_P1;SDS_P2;PMS_P1;PMS_P2;Temp;Humidity;BMP_temperature;BMP_pressure;BME280_temperature;BME280_humidity;BME280_pressure;Samples;Min_cycle;Max_cycle;Signal;HPM_P1;HPM_P2
2022/10/28 00:01:59;;;;;;;20.25;10.00;;;15.20;99.90;;;;;;5118798;27;20198;-83
2022/10/28 00:04:43;;;;;;;25.90;10.85;;;15.40;99.90;;;;;;5103693;27;20081;-84
2022/10/28 00:07:28;;;;;;;18.85;9.45;;;15.10;99.90;;;;;;5134621;27;20084;-83
2022/10/28 00:10:12;;;;;;;16.05;10.57;;;15.30;99.90;;;;;;5098840;28;20081;-83
2022/10/28 00:12:56;;;;;;;18.98;10.88;;;15.10;99.90;;;;;;5131014;27;20045;-83
2022/10/28 00:15:40;;;;;;;16.05;10.15;;;15.10;99.90;;;;;;5119090;27;20042;-83
2022/10/28 00:18:25;;;;;;;18.90;11.27;;;;;;;;;;5119019;27;20035;-83
2022/10/28 00:21:16;;;;;;;18.20;9.93;;;15.10;99.90;;;;;;5118690;27;20407;-83
2022/10/28 00:24:01;;;;;;;14.63;9.73;;;;;;;;;;5133894;27;20083;-83
2022/10/28 00:26:45;;;;;;;23.40;11.00;;;;;;;;;;5133611;27;20076;-84
2022/10/28 00:29:31;;;;;;;21.10;11.48;;;15.20;99.90;;;;;;5134289;27;20088;-83
2022/10/28 00:32:15;;;;;;;26.92;10.50;;;;;;;;;;5121981;27;20076;-83
2022/10/28 00:34:59;;;;;;;19.00;10.93;;;15.20;99.90;;;;;;5117911;27;20106;-83
2022/10/28 00:37:43;;;;;;;22.13;10.52;;;15.20;99.90;;;;;;5134125;27;20084;-83
2022/10/28 00:40:33;;;;;;;17.40;10.60;;;15.30;99.90;;;;;;5133699;27;20037;-83
2022/10/28 00:43:39;;;;;;;17.25;11.00;;;15.30;99.90;;;;;;5133926;27;20042;-83
2022/10/28 00:46:32;;;;;;;17.15;10.25;;;15.40;99.90;;;;;;5134074;27;20076;-83
2022/10/28 00:49:26;;;;;;;19.27;10.57;;;15.30;99.90;;;;;;5134041;27;20053;-83
2022/10/28 00:52:17;;;;;;;17.33;11.10;;;15.30;99.90;;;;;;5132908;27;20306;-84
2022/10/28 00:55:02;;;;;;;23.67;11.63;;;15.30;99.90;;;;;;5122673;27;20034;-83
2022/10/28 00:57:46;;;;;;;21.85;10.57;;;;;;;;;;5103816;27;20034;-83
2022/10/28 01:00:31;;;;;;;19.40;11.10;;;;;;;;;;5133682;27;20038;-83
2022/10/28 01:03:16;;;;;;;19.58;10.85;;;;;;;;;;5118238;27;20114;-83
2022/10/28 01:06:01;;;;;;;20.45;10.93;;;;;;;;;;5116941;27;20042;-83
2022/10/28 01:08:45;;;;;;;21.17;11.63;;;;;;;;;;5133473;27;20049;-83
2022/10/28 01:11:55;;;;;;;16.70;11.45;;;15.30;99.90;;;;;;5117773;27;20066;-82
2022/10/28 01:14:58;;;;;;;15.52;10.85;;;15.30;99.90;;;;;;5133288;27;20129;-83
2022/10/28 01:18:08;;;;;;;23.27;10.75;;;15.20;99.90;;;;;;5133126;27;20114;-83
2022/10/28 01:21:28;;;;;;;18.30;11.43;;;15.10;99.90;;;;;;5132543;27;20124;-84
2022/10/28 01:24:41;;;;;;;25.02;12.23;;;15.00;99.90;;;;;;5124525;27;20034;-83
2022/10/28 01:28:03;;;;;;;22.45;12.38;;;15.00;99.90;;;;;;5113782;27;20084;-83
2022/10/28 01:31:24;;;;;;;20.77;10.93;;;15.00;99.90;;;;;;5123210;27;20049;-83
2022/10/28 01:34:17;;;;;;;22.70;12.55;;;15.00;99.90;;;;;;5122085;27;20227;-83
2022/10/28 01:37:17;;;;;;;24.00;12.70;;;14.90;99.90;;;;;;5132551;27;20062;-83
2022/10/28 01:40:13;;;;;;;24.98;12.73;;;15.00;99.90;;;;;;5132495;27;20038;-83
2022/10/28 01:43:33;;;;;;;18.10;12.85;;;14.90;99.90;;;;;;5132659;27;20118;-83
2022/10/28 01:46:33;;;;;;;23.27;12.30;;;14.90;99.90;;;;;;5117050;28;20081;-83
2022/10/28 01:49:43;;;;;;;22.58;13.18;;;15.00;99.90;;;;;;5117082;28;20042;-83
2022/10/28 01:52:30;;;;;;;28.40;13.60;;;14.90;99.90;;;;;;5116687;27;20542;-83
2022/10/28 01:55:32;;;;;;;21.55;12.57;;;14.90;99.90;;;;;;5123749;27;20100;-84
2022/10/28 01:58:20;;;;;;;24.15;14.50;;;14.90;99.90;;;;;;5116987;28;20095;-83
2022/10/28 02:01:08;;;;;;;24.75;13.45;;;14.90;99.90;;;;;;5132286;27;20436;-84
2022/10/28 02:03:53;;;;;;;22.00;12.50;;;14.90;99.90;;;;;;5117516;28;20039;-83
2022/10/28 02:06:38;;;;;;;24.52;14.10;;;;;;;;;;5117406;28;20436;-84
2022/10/28 02:09:23;;;;;;;25.55;12.82;;;;;;;;;;5132457;27;20041;-83
2022/10/28 02:12:24;;;;;;;24.95;14.43;;;14.90;99.90;;;;;;5132436;27;20038;-84
2022/10/28 02:15:28;;;;;;;22.75;13.80;;;15.20;99.90;;;;;;5116902;28;20135;-83
2022/10/28 02:18:13;;;;;;;;;;;14.90;99.90;;;;;;5133605;27;20068;-84
2022/10/28 02:20:57;;;;;;;21.73;12.88;;;;;;;;;;5136712;27;19968;-83
2022/10/28 02:23:56;;;;;;;25.58;15.90;;;14.80;99.90;;;;;;5124061;27;20066;-83
2022/10/28 02:26:45;;;;;;;23.35;14.55;;;14.70;99.90;;;;;;5136464;27;20034;-83
2022/10/28 02:29:40;;;;;;;22.80;14.25;;;14.70;99.90;;;;;;5136769;27;20037;-83
2022/10/28 02:32:26;;;;;;;27.05;14.65;;;14.70;99.90;;;;;;5120526;27;20038;-83
2022/10/28 02:35:16;;;;;;;23.45;14.57;;;14.60;99.90;;;;;;5135879;27;20402;-83
2022/10/28 02:38:04;;;;;;;24.95;14.98;;;14.70;99.90;;;;;;5136511;27;20034;-83
2022/10/28 02:40:53;;;;;;;28.65;15.38;;;14.70;99.90;;;;;;5136298;27;20497;-83
2022/10/28 02:43:40;;;;;;;30.35;15.18;;;14.70;99.90;;;;;;5136239;27;20038;-83
2022/10/28 02:46:28;;;;;;;32.92;17.10;;;14.70;99.90;;;;;;5120226;27;20046;-83
2022/10/28 02:49:14;;;;;;;25.50;15.35;;;14.70;99.90;;;;;;5120253;27;20054;-83
2022/10/28 02:52:01;;;;;;;27.63;15.80;;;14.70;99.90;;;;;;5128149;27;20034;-83
2022/10/28 02:54:53;;;;;;;28.58;16.25;;;14.70;99.90;;;;;;5135898;27;20038;-83
2022/10/28 02:57:42;;;;;;;29.73;15.98;;;14.70;99.90;;;;;;5136170;27;20050;-83
2022/10/28 03:00:26;;;;;;;23.60;15.80;;;;;;;;;;5135301;27;20034;-83
2022/10/28 03:03:11;;;;;;;27.65;15.90;;;14.70;99.90;;;;;;5135450;27;20050;-84
2022/10/28 03:05:55;;;;;;;27.38;15.15;;;;;;;;;;5135702;27;20555;-84
2022/10/28 03:08:40;;;;;;;30.90;15.93;;;;;;;;;;5120293;27;20038;-83
2022/10/28 03:11:24;;;;;;;27.90;15.80;;;;;;;;;;5135101;27;20074;-83
2022/10/28 03:14:09;;;;;;;27.20;15.57;;;;;;;;;;5119828;27;20506;-84
2022/10/28 03:16:53;;;;;;;27.98;16.00;;;;;;;;;;5120211;27;20502;-83
2022/10/28 03:19:38;;;;;;;28.90;15.43;;;;;;;;;;5120070;27;20045;-83
2022/10/28 03:22:22;;;;;;;24.95;16.08;;;;;;;;;;5119507;27;20088;-83
2022/10/28 03:25:07;;;;;;;28.23;16.30;;;14.40;99.90;;;;;;5135234;27;20037;-83
2022/10/28 03:27:51;;;;;;;36.45;15.77;;;;;;;;;;5120112;27;20092;-83
2022/10/28 03:30:36;;;;;;;25.80;16.17;;;;;;;;;;5122861;27;20141;-84
2022/10/28 03:33:20;;;;;;;26.60;15.18;;;;;;;;;;5134766;27;20135;-83
2022/10/28 03:36:05;;;;;;;29.75;17.17;;;;;;;;;;5135406;27;20394;-83
2022/10/28 03:38:49;;;;;;;29.10;15.90;;;;;;;;;;5119627;27;20038;-83
2022/10/28 03:41:34;;;;;;;29.70;15.82;;;;;;;;;;5134488;27;20046;-84
2022/10/28 03:44:19;;;;;;;29.23;15.93;;;;;;;;;;5134613;27;20057;-84
2022/10/28 03:47:03;;;;;;;27.83;15.65;;;;;;;;;;5119514;27;20084;-83
2022/10/28 03:49:47;;;;;;;29.27;15.77;;;14.20;99.90;;;;;;5135067;27;20046;-83
2022/10/28 03:52:31;;;;;;;33.67;18.08;;;;;;;;;;5134525;27;20046;-83
2022/10/28 03:55:16;;;;;;;25.75;15.30;;;;;;;;;;5134228;27;20042;-84
2022/10/28 03:58:01;;;;;;;30.75;17.38;;;;;;;;;;5119465;27;20042;-83
2022/10/28 04:00:52;;;;;;;31.33;16.33;;;14.10;99.90;;;;;;5134444;27;20391;-83
2022/10/28 04:03:37;;;;;;;29.63;16.75;;;;;;;;;;5134261;27;20119;-83
2022/10/28 04:06:21;;;;;;;27.77;14.95;;;;;;;;;;5118526;27;20502;-84
2022/10/28 04:09:06;;;;;;;32.47;17.20;;;;;;;;;;5134486;27;20514;-83
2022/10/28 04:11:51;;;;;;;32.65;16.83;;;;;;;;;;5118992;27;20160;-83
2022/10/28 04:14:35;;;;;;;28.67;16.38;;;;;;;;;;5118336;27;20034;-83
2022/10/28 04:17:20;;;;;;;29.67;16.55;;;;;;;;;;5134004;27;20494;-84
2022/10/28 04:20:04;;;;;;;30.40;17.05;;;13.90;99.90;;;;;;5122445;27;20091;-83
2022/10/28 04:22:49;;;;;;;27.88;15.85;;;;;;;;;;5134245;27;20095;-83
2022/10/28 04:25:33;;;;;;;31.17;17.33;;;;;;;;;;5118211;27;20521;-83
2022/10/28 04:28:18;;;;;;;31.23;16.35;;;;;;;;;;5133994;27;20050;-84
2022/10/28 04:31:03;;;;;;;33.10;17.52;;;;;;;;;;5134113;27;20399;-83
2022/10/28 04:33:47;;;;;;;25.23;16.13;;;;;;;;;;5118847;27;20030;-83
2022/10/28 04:36:32;;;;;;;27.88;15.82;;;;;;;;;;5133521;27;20038;-84
2022/10/28 04:39:17;;;;;;;33.17;17.08;;;;;;;;;;5118485;27;20083;-83
2022/10/28 04:42:01;;;;;;;36.25;18.55;;;;;;;;;;5117766;27;20050;-83
2022/10/28 04:44:46;;;;;;;35.15;18.67;;;;;;;;;;5133775;27;20403;-83
2022/10/28 04:47:30;;;;;;;28.42;16.48;;;;;;;;;;5117837;27;20438;-84
2022/10/28 04:50:15;;;;;;;29.08;17.88;;;;;;;;;;5133711;27;20042;-83
2022/10/28 04:53:00;;;;;;;27.95;16.30;;;;;;;;;;5118547;27;20091;-83
2022/10/28 04:55:44;;;;;;;29.63;18.48;;;;;;;;;;5133305;27;20528;-83
2022/10/28 04:58:29;;;;;;;26.35;16.10;;;;;;;;;;5133063;27;20446;-84
2022/10/28 05:01:13;;;;;;;30.90;17.05;;;;;;;;;;5133653;27;20054;-83
2022/10/28 05:03:58;;;;;;;34.67;17.25;;;;;;;;;;5118097;27;20090;-83
2022/10/28 05:06:42;;;;;;;33.95;16.77;;;;;;;;;;5133122;27;20602;-83
2022/10/28 05:09:27;;;;;;;37.10;17.10;;;;;;;;;;5117395;27;20042;-83
2022/10/28 05:12:11;;;;;;;26.80;16.45;;;;;;;;;;5118121;27;20510;-83
2022/10/28 05:14:56;;;;;;;27.20;16.33;;;;;;;;;;5133498;27;20444;-83
2022/10/28 05:17:42;;;;;;;27.88;16.55;;;13.70;99.90;;;;;;5117246;27;20038;-83
2022/10/28 05:20:26;;;;;;;29.15;17.75;;;14.30;99.90;;;;;;5117094;27;20074;-84
2022/10/28 05:23:11;;;;;;;29.45;15.77;;;;;;;;;;5133434;27;20049;-83
2022/10/28 05:25:56;;;;;;;30.77;16.90;;;;;;;;;;5133207;27;20038;-83
2022/10/28 05:28:40;;;;;;;33.78;17.30;;;;;;;;;;5132929;27;20060;-84
2022/10/28 05:31:25;;;;;;;29.48;15.60;;;;;;;;;;5132545;27;20042;-83
2022/10/28 05:34:09;;;;;;;28.45;16.70;;;;;;;;;;5132706;27;20084;-85
2022/10/28 05:36:54;;;;;;;25.10;15.25;;;;;;;;;;5123932;27;20034;-84
2022/10/28 05:39:38;;;;;;;31.13;16.45;;;;;;;;;;5112749;27;20114;-83
2022/10/28 05:42:23;;;;;;;30.77;16.00;;;;;;;;;;5122126;27;20552;-83
2022/10/28 05:45:08;;;;;;;39.33;15.68;;;13.40;99.90;;;;;;5143247;27;20039;-83
2022/10/28 05:47:53;;;;;;;29.95;17.17;;;;;;;;;;5134380;27;20142;-83
2022/10/28 05:50:38;;;;;;;30.10;17.27;;;;;;;;;;5129317;27;20058;-84
2022/10/28 05:53:22;;;;;;;33.30;17.27;;;;;;;;;;5148803;27;20045;-83
2022/10/28 05:56:07;;;;;;;35.85;16.05;;;13.50;99.90;;;;;;5152712;27;20038;-83
2022/10/28 05:58:52;;;;;;;33.67;17.88;;;;;;;;;;5143033;27;20038;-84
2022/10/28 06:01:36;;;;;;;36.85;17.98;;;;;;;;;;5116966;27;20470;-83
2022/10/28 06:04:21;;;;;;;30.08;16.38;;;;;;;;;;5122107;27;20075;-83
2022/10/28 06:07:05;;;;;;;30.48;16.17;;;;;;;;;;5140648;27;20042;-84
2022/10/28 06:09:50;;;;;;;26.80;16.08;;;;;;;;;;5138625;27;20498;-83
2022/10/28 06:12:35;;;;;;;33.42;17.58;;;;;;;;;;5140540;27;20042;-84
2022/10/28 06:15:20;;;;;;;32.67;16.75;;;;;;;;;;5138977;27;20070;-83
2022/10/28 06:18:04;;;;;;;34.35;17.17;;;;;;;;;;5139035;27;20053;-83
2022/10/28 06:20:53;;;;;;;34.65;16.20;;;13.30;99.90;;;;;;5139828;27;20093;-84
2022/10/28 06:23:38;;;;;;;25.73;15.50;;;;;;;;;;5138231;27;20422;-84
2022/10/28 06:26:23;;;;;;;29.35;16.25;;;;;;;;;;5124570;27;20058;-83
2022/10/28 06:29:09;;;;;;;30.40;16.40;;;13.50;99.90;;;;;;5138789;27;20042;-83
2022/10/28 06:31:54;;;;;;;33.35;15.52;;;;;;;;;;5125359;27;20497;-83
2022/10/28 06:34:39;;;;;;;34.40;17.25;;;;;;;;;;5128789;27;20041;-83
2022/10/28 06:37:23;;;;;;;28.10;15.88;;;;;;;;;;5143192;27;20468;-83
2022/10/28 06:40:08;;;;;;;33.28;15.32;;;13.50;99.90;;;;;;5103307;27;20058;-84
2022/10/28 06:43:00;;;;;;;33.83;16.02;;;13.40;99.90;;;;;;5141067;27;20045;-84
2022/10/28 06:45:47;;;;;;;27.42;15.10;;;13.50;99.90;;;;;;5153147;27;20057;-84
2022/10/28 06:48:31;;;;;;;25.58;15.50;;;;;;;;;;5134666;27;20034;-83
2022/10/28 06:51:16;;;;;;;27.25;14.98;;;;;;;;;;5137867;27;20390;-86
2022/10/28 06:54:01;;;;;;;30.10;15.27;;;;;;;;;;5138218;27;20057;-83
2022/10/28 06:56:46;;;;;;;24.23;15.05;;;13.50;99.90;;;;;;5125954;27;20083;-83
2022/10/28 06:59:31;;;;;;;29.88;15.07;;;;;;;;;;5117934;27;20060;-83
2022/10/28 07:02:15;;;;;;;26.20;14.52;;;;;;;;;;5141347;27;20045;-83
2022/10/28 07:05:00;;;;;;;26.80;15.27;;;;;;;;;;5141908;27;20045;-83
2022/10/28 07:07:44;;;;;;;27.83;14.07;;;;;;;;;;5141866;27;20030;-83
2022/10/28 07:10:29;;;;;;;24.30;13.27;;;;;;;;;;5130786;27;20402;-83
2022/10/28 07:13:13;;;;;;;21.83;13.90;;;;;;;;;;5125732;27;20158;-83
2022/10/28 07:15:59;;;;;;;27.73;13.68;;;13.80;99.90;;;;;;5137350;27;20087;-83
2022/10/28 07:18:43;;;;;;;28.10;14.35;;;;;;;;;;5127648;27;20413;-84
2022/10/28 07:21:28;;;;;;;28.08;13.70;;;;;;;;;;5119079;27;20065;-83
2022/10/28 07:24:13;;;;;;;23.38;13.27;;;;;;;;;;5125897;27;20050;-83
2022/10/28 07:26:57;;;;;;;21.67;12.40;;;;;;;;;;5119468;27;20043;-83
2022/10/28 07:29:42;;;;;;;18.88;12.35;;;;;;;;;;5122639;27;20490;-83
2022/10/28 07:32:31;;;;;;;27.88;11.55;;;14.40;99.90;;;;;;5125501;27;20087;-82
2022/10/28 07:35:15;;;;;;;26.40;11.38;;;14.40;99.90;;;;;;5120420;27;20035;-83
2022/10/28 07:38:00;;;;;;;28.80;10.73;;;;;;;;;;5122728;27;20076;-83
2022/10/28 07:40:45;;;;;;;19.05;11.02;;;;;;;;;;5121987;27;20548;-83
2022/10/28 07:43:29;;;;;;;18.20;9.48;;;14.70;99.90;;;;;;5120786;27;20035;-83
2022/10/28 07:46:13;;;;;;;21.27;9.68;;;14.90;99.90;;;;;;5125236;27;20531;-83
2022/10/28 07:48:57;;;;;;;21.25;9.82;;;15.20;99.90;;;;;;5113164;27;20059;-84
2022/10/28 07:51:41;;;;;;;17.55;8.82;;;15.70;99.90;;;;;;5123155;27;20038;-83
2022/10/28 07:54:25;;;;;;;15.68;8.68;;;15.60;99.90;;;;;;5121422;27;20088;-83
2022/10/28 07:57:10;;;;;;;18.83;8.40;;;15.70;99.90;;;;;;5119206;27;20489;-83
2022/10/28 07:59:54;;;;;;;16.40;9.45;;;15.80;99.90;;;;;;5108419;27;20123;-83
2022/10/28 08:02:39;;;;;;;18.42;8.10;;;15.80;99.90;;;;;;5126611;27;20096;-83
2022/10/28 08:05:23;;;;;;;15.70;7.68;;;15.90;99.90;;;;;;5113185;28;20042;-83
2022/10/28 08:08:08;;;;;;;18.63;8.07;;;16.10;99.90;;;;;;5100641;28;20159;-83
2022/10/28 08:10:52;;;;;;;15.27;8.45;;;16.10;99.90;;;;;;5113477;28;20054;-84
2022/10/28 08:13:36;;;;;;;25.40;9.65;;;16.10;99.90;;;;;;5113059;28;20047;-83
2022/10/28 08:16:21;;;;;;;18.92;8.02;;;16.10;99.90;;;;;;5113829;28;20088;-83
2022/10/28 08:19:05;;;;;;;20.85;8.90;;;16.30;99.90;;;;;;5112234;28;20070;-84
2022/10/28 08:21:49;;;;;;;18.00;7.78;;;16.30;99.90;;;;;;5123102;27;20131;-83
2022/10/28 08:24:35;;;;;;;16.42;7.65;;;16.30;99.90;;;;;;5118776;27;20174;-82
2022/10/28 08:27:19;;;;;;;13.95;7.35;;;16.40;99.90;;;;;;5119118;27;20034;-82
2022/10/28 08:30:04;;;;;;;24.50;8.68;;;16.60;99.90;;;;;;5120000;27;20452;-83
2022/10/28 08:32:48;;;;;;;17.35;7.50;;;16.70;99.90;;;;;;5118598;27;20034;-83
2022/10/28 08:35:34;;;;;;;16.55;7.93;;;16.80;99.90;;;;;;5134145;27;20042;-82
2022/10/28 08:38:18;;;;;;;17.08;7.30;;;16.80;99.90;;;;;;5134072;27;20072;-83
2022/10/28 08:41:17;;;;;;;16.65;7.05;;;16.90;99.90;;;;;;5133562;27;20161;-82
2022/10/28 08:44:01;;;;;;;13.15;8.35;;;17.00;99.90;;;;;;5122963;27;20451;-83
2022/10/28 08:47:26;;;;;;;18.27;7.72;;;17.10;99.90;;;;;;5133864;27;20038;-83
2022/10/28 08:50:17;;;;;;;15.10;7.25;;;17.20;99.90;;;;;;5133288;27;20203;-81
2022/10/28 08:53:13;;;;;;;19.13;7.40;;;17.30;99.90;;;;;;5117978;27;20042;-83
2022/10/28 08:56:09;;;;;;;17.67;6.43;;;17.50;99.90;;;;;;5122955;27;20075;-84
2022/10/28 08:58:59;;;;;;;17.83;6.25;;;17.70;99.90;;;;;;5131540;27;20029;-83
2022/10/28 09:01:47;;;;;;;18.13;6.40;;;17.60;99.90;;;;;;5124857;27;20087;-83
2022/10/28 09:04:39;;;;;;;23.20;8.65;;;17.70;99.90;;;;;;5133819;27;20038;-82
2022/10/28 09:07:24;;;;;;;18.17;7.63;;;17.80;99.90;;;;;;5133411;27;20542;-82
2022/10/28 09:10:12;;;;;;;15.30;7.13;;;17.70;99.90;;;;;;5103245;27;20107;-83
2022/10/28 09:13:28;;;;;;;20.20;7.25;;;17.80;99.90;;;;;;5133396;27;20030;-83
2022/10/28 09:16:15;;;;;;;15.95;6.78;;;17.70;99.90;;;;;;5128330;27;20053;-82
2022/10/28 09:19:36;;;;;;;13.80;7.35;;;17.70;99.90;;;;;;5133092;27;20084;-83
2022/10/28 09:22:40;;;;;;;14.90;6.32;;;17.60;99.90;;;;;;5125523;27;20081;-82
2022/10/28 09:25:31;;;;;;;16.70;7.45;;;17.70;99.90;;;;;;5123446;27;20045;-83
2022/10/28 09:28:55;;;;;;;24.25;9.32;;;17.70;99.90;;;;;;5116691;27;20115;-83
2022/10/28 09:31:52;;;;;;;12.32;6.65;;;17.70;99.90;;;;;;5133194;27;20038;-82
2022/10/28 09:34:45;;;;;;;16.45;6.30;;;17.60;99.90;;;;;;5117560;27;20547;-82
2022/10/28 09:37:35;;;;;;;17.20;7.10;;;17.80;99.90;;;;;;5117885;28;20084;-82
2022/10/28 09:40:25;;;;;;;15.85;6.20;;;17.70;99.90;;;;;;5116263;28;20049;-82
2022/10/28 09:43:29;;;;;;;12.35;6.53;;;17.80;99.90;;;;;;5132055;27;20038;-84
2022/10/28 09:46:16;;;;;;;12.85;6.05;;;17.80;99.90;;;;;;5130418;27;20030;-84
2022/10/28 09:49:26;;;;;;;16.48;6.90;;;17.90;99.90;;;;;;5128308;27;20049;-84
2022/10/28 09:52:18;;;;;;;14.95;6.32;;;17.90;99.90;;;;;;5116924;27;20040;-83
2022/10/28 09:55:14;;;;;;;11.55;6.05;;;17.90;99.90;;;;;;5132557;27;20041;-81
2022/10/28 09:57:59;;;;;;;12.38;6.03;;;18.00;99.90;;;;;;5134208;27;20080;-81
2022/10/28 10:00:43;;;;;;;14.75;7.40;;;18.00;99.90;;;;;;5118529;27;20083;-81
2022/10/28 10:03:27;;;;;;;18.15;6.68;;;18.00;99.90;;;;;;5116709;28;20158;-81
2022/10/28 10:06:19;;;;;;;16.00;5.75;;;18.00;99.90;;;;;;5132404;27;20084;-81
2022/10/28 10:09:04;;;;;;;17.77;6.63;;;18.00;99.90;;;;;;5132882;27;20447;-81
2022/10/28 10:11:51;;;;;;;11.88;5.18;;;18.10;99.90;;;;;;5132965;27;20122;-81
2022/10/28 10:14:36;;;;;;;12.25;6.25;;;18.10;99.90;;;;;;5132743;27;20043;-81
2022/10/28 10:17:28;;;;;;;18.33;6.57;;;18.40;99.90;;;;;;5132433;27;20038;-81
2022/10/28 10:20:18;;;;;;;18.27;6.82;;;18.20;99.90;;;;;;5132264;27;20091;-82
2022/10/28 10:23:26;;;;;;;11.75;5.97;;;18.10;99.90;;;;;;5132448;27;20050;-81
2022/10/28 10:26:13;;;;;;;16.40;6.05;;;18.20;99.90;;;;;;5132196;27;20091;-81
2022/10/28 10:28:58;;;;;;;25.33;7.68;;;18.30;99.90;;;;;;5132918;27;20485;-81
2022/10/28 10:31:44;;;;;;;14.45;5.68;;;18.30;99.90;;;;;;5118779;27;20399;-81
2022/10/28 10:34:29;;;;;;;15.30;5.63;;;18.60;99.90;;;;;;5116453;27;20034;-83
2022/10/28 10:37:21;;;;;;;15.80;4.90;;;18.60;99.90;;;;;;5116750;28;20042;-83
2022/10/28 10:40:33;;;;;;;14.52;5.60;;;18.70;99.90;;;;;;5134809;27;20068;-83
2022/10/28 10:43:17;;;;;;;18.00;5.38;;;19.10;99.90;;;;;;5135707;27;20034;-83
2022/10/28 10:46:04;;;;;;;14.52;5.80;;;18.70;99.90;;;;;;5120836;27;20080;-83
2022/10/28 10:49:10;;;;;;;20.35;5.70;;;18.80;99.90;;;;;;5136405;27;20038;-83
2022/10/28 10:51:57;;;;;;;15.00;5.95;;;18.80;99.90;;;;;;5136074;27;20049;-83
2022/10/28 10:54:47;;;;;;;20.20;6.15;;;19.00;99.90;;;;;;5139548;27;20033;-83
2022/10/28 10:57:32;;;;;;;11.80;4.93;;;18.90;99.90;;;;;;5140317;27;20042;-83
2022/10/28 11:00:19;;;;;;;14.93;5.53;;;18.70;99.90;;;;;;5123983;27;20042;-84
2022/10/28 11:03:06;;;;;;;14.50;6.10;;;19.10;99.90;;;;;;5123985;27;20084;-82
2022/10/28 11:05:58;;;;;;;27.52;7.65;;;19.10;99.90;;;;;;5119897;27;20070;-83
2022/10/28 11:08:43;;;;;;;14.65;5.78;;;19.20;99.90;;;;;;5129472;27;20034;-83
2022/10/28 11:11:36;;;;;;;13.80;6.88;;;19.30;99.90;;;;;;5149361;27;20160;-83
2022/10/28 11:14:27;;;;;;;11.20;5.68;;;19.30;99.90;;;;;;5148663;27;20057;-84
2022/10/28 11:17:23;;;;;;;19.58;5.70;;;19.30;99.90;;;;;;5136848;27;20037;-82
2022/10/28 11:20:34;;;;;;;18.70;6.40;;;19.40;99.90;;;;;;5151299;27;20064;-82
2022/10/28 11:23:27;;;;;;;12.57;5.72;;;19.50;99.90;;;;;;5148644;27;20049;-83
2022/10/28 11:26:14;;;;;;;15.00;5.80;;;19.50;99.90;;;;;;5149292;27;20096;-83
2022/10/28 11:29:09;;;;;;;13.10;5.75;;;19.60;99.90;;;;;;5152387;27;20473;-83
2022/10/28 11:32:09;;;;;;;12.95;5.13;;;19.70;99.90;;;;;;5150007;27;20485;-84
2022/10/28 11:35:03;;;;;;;18.60;6.90;;;19.50;99.90;;;;;;5132166;27;20077;-83
2022/10/28 11:37:53;;;;;;;;;;;19.70;99.90;;;;;;5136789;27;20033;-83
2022/10/28 11:41:36;;;;;;;14.32;6.43;;;19.50;99.90;;;;;;5151122;27;20410;-82
2022/10/28 11:44:29;;;;;;;15.60;5.93;;;19.70;99.90;;;;;;5120059;27;20042;-83
2022/10/28 11:47:44;;;;;;;16.47;6.17;;;19.90;99.90;;;;;;5149899;27;20029;-82
2022/10/28 11:50:42;;;;;;;17.90;5.93;;;19.80;99.90;;;;;;5147541;27;20263;-82
2022/10/28 11:53:53;;;;;;;14.82;5.95;;;19.90;99.90;;;;;;5147888;27;20075;-83
2022/10/28 11:56:52;;;;;;;15.38;5.75;;;19.70;99.90;;;;;;5124638;27;20045;-83
2022/10/28 12:00:06;;;;;;;14.18;5.40;;;20.00;99.90;;;;;;5134549;27;20050;-83
2022/10/28 12:03:22;;;;;;;13.60;5.80;;;20.00;99.90;;;;;;5105814;27;20066;-82
2022/10/28 12:06:44;;;;;;;13.93;5.80;;;20.00;99.90;;;;;;5134694;27;20034;-82
2022/10/28 12:10:01;;;;;;;22.27;5.28;;;20.00;99.90;;;;;;5134064;27;20110;-83
2022/10/28 12:13:06;;;;;;;20.05;6.65;;;20.20;99.90;;;;;;5134023;27;20092;-83
2022/10/28 12:16:04;;;;;;;14.20;6.25;;;20.10;99.90;;;;;;5134466;27;20041;-83
2022/10/28 12:19:04;;;;;;;13.32;5.85;;;20.20;99.90;;;;;;5134319;27;20071;-83
2022/10/28 12:22:13;;;;;;;22.38;5.93;;;20.20;99.90;;;;;;5133899;27;20082;-83
2022/10/28 12:25:02;;;;;;;15.18;5.60;;;20.20;99.90;;;;;;5134435;27;20033;-82
2022/10/28 12:27:49;;;;;;;20.98;5.57;;;20.30;99.90;;;;;;5118145;27;20030;-82
2022/10/28 12:30:37;;;;;;;17.08;5.70;;;20.20;99.90;;;;;;5118349;27;20449;-83
2022/10/28 12:33:35;;;;;;;13.70;5.88;;;20.20;99.90;;;;;;5134029;27;20038;-83
2022/10/28 12:36:33;;;;;;;19.58;5.90;;;20.30;99.90;;;;;;5134097;27;20527;-83
2022/10/28 12:39:30;;;;;;;21.38;6.75;;;20.20;99.90;;;;;;5134256;27;20037;-83
2022/10/28 12:42:22;;;;;;;18.70;6.20;;;20.10;99.90;;;;;;5134229;27;20046;-82
2022/10/28 12:45:14;;;;;;;18.48;6.05;;;20.20;99.90;;;;;;5133867;27;20164;-82
2022/10/28 12:48:05;;;;;;;20.15;7.20;;;20.20;99.90;;;;;;5134055;27;20483;-83
2022/10/28 12:51:08;;;;;;;16.25;6.47;;;20.20;99.90;;;;;;5117892;27;20038;-83
2022/10/28 12:54:26;;;;;;;16.38;6.53;;;20.20;99.90;;;;;;5133829;27;20045;-83
2022/10/28 12:57:14;;;;;;;18.92;5.80;;;20.20;99.90;;;;;;5136650;27;20034;-83
2022/10/28 13:00:04;;;;;;;22.60;7.22;;;20.20;99.90;;;;;;5128398;27;20069;-84
2022/10/28 13:03:20;;;;;;;19.10;6.28;;;20.30;99.90;;;;;;5131113;27;20100;-82
2022/10/28 13:06:27;;;;;;;16.65;5.82;;;20.30;99.90;;;;;;5136055;27;20034;-82
2022/10/28 13:09:34;;;;;;;19.60;6.47;;;20.20;99.90;;;;;;5137133;27;20512;-82
2022/10/28 13:12:32;;;;;;;19.17;5.90;;;20.30;99.90;;;;;;5121558;27;20528;-82
2022/10/28 13:15:35;;;;;;;16.40;5.78;;;20.00;99.90;;;;;;5135356;27;20042;-81
2022/10/28 13:18:42;;;;;;;20.52;6.35;;;20.10;99.90;;;;;;5124857;27;20050;-81
2022/10/28 13:21:57;;;;;;;12.35;5.88;;;20.40;99.90;;;;;;5134631;27;20415;-81
2022/10/28 13:25:00;;;;;;;14.32;5.88;;;20.30;99.90;;;;;;5135327;27;20051;-82
2022/10/28 13:27:45;;;;;;;16.77;5.93;;;20.20;99.90;;;;;;5143103;27;20034;-81
2022/10/28 13:30:33;;;;;;;13.55;5.63;;;20.30;99.90;;;;;;5133974;27;20506;-81
2022/10/28 13:33:26;;;;;;;19.95;5.70;;;20.40;99.90;;;;;;5129218;27;20042;-81
2022/10/28 13:36:20;;;;;;;17.42;6.13;;;20.50;99.90;;;;;;5148533;27;20033;-81
2022/10/28 13:39:20;;;;;;;15.52;5.97;;;20.60;99.90;;;;;;5149540;27;20079;-81
2022/10/28 13:42:16;;;;;;;15.23;5.70;;;20.60;99.90;;;;;;5131178;27;20119;-81
2022/10/28 13:45:01;;;;;;;16.13;6.07;;;20.80;99.90;;;;;;5145163;27;20133;-81
2022/10/28 13:47:45;;;;;;;18.98;6.18;;;20.70;99.90;;;;;;5148907;27;20038;-82
2022/10/28 13:50:33;;;;;;;21.02;6.00;;;21.20;99.90;;;;;;5130230;27;20114;-82
2022/10/28 13:53:23;;;;;;;14.98;6.07;;;20.80;99.90;;;;;;5147462;27;20057;-82
2022/10/28 13:56:25;;;;;;;18.55;7.78;;;20.60;99.90;;;;;;5131359;27;20033;-82
2022/10/28 13:59:50;;;;;;;20.10;6.22;;;20.50;99.90;;;;;;5136826;27;20031;-81
2022/10/28 14:02:40;;;;;;;18.58;6.18;;;20.40;99.90;;;;;;5113886;27;20054;-82
2022/10/28 14:05:31;;;;;;;17.58;5.93;;;20.30;99.90;;;;;;5132631;27;20089;-83
2022/10/28 14:08:20;;;;;;;17.75;6.90;;;20.30;99.90;;;;;;5131949;27;20034;-82
2022/10/28 14:11:12;;;;;;;14.88;5.63;;;20.10;99.90;;;;;;5132338;27;20111;-81
2022/10/28 14:14:02;;;;;;;16.38;6.55;;;20.20;99.90;;;;;;5139791;27;20508;-82
2022/10/28 14:16:47;;;;;;;15.43;6.07;;;20.20;99.90;;;;;;5139418;27;20525;-80
2022/10/28 14:19:31;;;;;;;19.27;6.25;;;20.30;99.90;;;;;;5141571;27;20136;-83
2022/10/28 14:22:30;;;;;;;19.13;6.30;;;20.00;99.90;;;;;;5110481;27;20123;-83
2022/10/28 14:25:43;;;;;;;16.50;6.30;;;19.80;99.90;;;;;;5139615;27;20100;-83
2022/10/28 14:28:27;;;;;;;12.93;6.15;;;20.00;99.90;;;;;;5129091;27;20444;-82
2022/10/28 14:31:13;;;;;;;14.45;5.90;;;19.70;99.90;;;;;;5141736;27;20030;-82
2022/10/28 14:33:57;;;;;;;17.45;7.10;;;20.00;99.90;;;;;;5138736;27;20050;-82
2022/10/28 14:37:23;;;;;;;15.07;6.05;;;19.80;99.90;;;;;;5123863;27;20095;-82
2022/10/28 14:40:15;;;;;;;15.65;6.18;;;19.70;99.90;;;;;;5139574;27;20494;-82
2022/10/28 14:43:15;;;;;;;19.45;6.13;;;19.80;99.90;;;;;;5140880;27;20155;-82
2022/10/28 14:46:04;;;;;;;24.23;6.55;;;19.70;99.90;;;;;;5123094;27;20079;-82
2022/10/28 14:48:54;;;;;;;19.10;6.30;;;19.80;99.90;;;;;;5122857;27;20076;-83
2022/10/28 14:51:41;;;;;;;19.15;6.45;;;19.60;99.90;;;;;;5141225;27;20065;-82
2022/10/28 14:54:36;;;;;;;15.30;6.35;;;19.30;99.90;;;;;;5138667;27;20058;-82
2022/10/28 14:57:27;;;;;;;16.65;6.97;;;19.60;99.90;;;;;;5128298;27;20034;-82
2022/10/28 15:00:18;;;;;;;16.77;5.93;;;19.50;99.90;;;;;;5109725;27;20406;-82
2022/10/28 15:03:02;;;;;;;13.27;6.30;;;19.50;99.90;;;;;;5123496;27;20095;-82
2022/10/28 15:05:47;;;;;;;15.90;5.85;;;;;;;;;;5119948;27;20038;-82
2022/10/28 15:08:32;;;;;;;15.30;5.82;;;19.50;99.90;;;;;;5120321;27;20521;-82